sensor_id;sensor_type;location;lat;lon;timestamp;pressure;altitude;pressure_sealevel;temperature;humidity
35910;BME280;22004;49.120;-0.200;2023-06-22T00:01:24;101752.28;;;18.89;77.32
35910;BME280;22004;49.120;-0.200;2023-06-22T00:03:50;101779.91;;;18.85;77.50
35910;BME280;22004;49.120;-0.200;2023-06-22T00:06:15;101751.44;;;18.88;77.29
35910;BME280;22004;49.120;-0.200;2023-06-22T00:08:41;101744.75;;;18.91;77.41
35910;BME280;22004;49.120;-0.200;2023-06-22T00:11:07;101754.16;;;18.95;77.40
35910;BME280;22004;49.120;-0.200;2023-06-22T00:13:32;101756.44;;;18.84;77.68
35910;BME280;22004;49.120;-0.200;2023-06-22T00:15:57;101753.31;;;18.88;77.61
35910;BME280;22004;49.120;-0.200;2023-06-22T00:18:23;101766.72;;;18.89;77.61
35910;BME280;22004;49.120;-0.200;2023-06-22T00:20:53;101753.75;;;18.91;77.46
35910;BME280;22004;49.120;-0.200;2023-06-22T00:23:22;101755.19;;;18.94;77.32
35910;BME280;22004;49.120;-0.200;2023-06-22T00:25:49;101762.34;;;18.81;77.75
35910;BME280;22004;49.120;-0.200;2023-06-22T00:28:14;101753.53;;;18.86;77.54
35910;BME280;22004;49.120;-0.200;2023-06-22T00:30:40;101752.50;;;18.87;77.52
35910;BME280;22004;49.120;-0.200;2023-06-22T00:33:05;101744.75;;;18.77;77.86
35910;BME280;22004;49.120;-0.200;2023-06-22T00:35:32;101746.63;;;18.83;77.76
35910;BME280;22004;49.120;-0.200;2023-06-22T00:37:59;101750.41;;;18.82;77.48
35910;BME280;22004;49.120;-0.200;2023-06-22T00:40:31;101748.94;;;18.87;77.75
35910;BME280;22004;49.120;-0.200;2023-06-22T00:42:57;101755.00;;;18.89;77.49
35910;BME280;22004;49.120;-0.200;2023-06-22T00:45:23;101755.63;;;18.84;77.81
35910;BME280;22004;49.120;-0.200;2023-06-22T00:47:51;101749.78;;;18.80;77.90
35910;BME280;22004;49.120;-0.200;2023-06-22T00:50:19;101748.72;;;18.88;77.69
35910;BME280;22004;49.120;-0.200;2023-06-22T00:52:49;101749.56;;;18.82;77.87
35910;BME280;22004;49.120;-0.200;2023-06-22T00:55:16;101772.56;;;18.79;77.98
35910;BME280;22004;49.120;-0.200;2023-06-22T00:57:44;101735.78;;;18.70;78.11
35910;BME280;22004;49.120;-0.200;2023-06-22T01:00:11;101744.34;;;18.80;78.01
35910;BME280;22004;49.120;-0.200;2023-06-22T01:02:41;101731.97;;;18.84;77.83
35910;BME280;22004;49.120;-0.200;2023-06-22T01:05:11;101736.16;;;18.87;77.78
35910;BME280;22004;49.120;-0.200;2023-06-22T01:10:50;101732.41;;;18.81;78.00
35910;BME280;22004;49.120;-0.200;2023-06-22T01:13:28;101735.56;;;18.85;77.89
35910;BME280;22004;49.120;-0.200;2023-06-22T01:16:03;101731.56;;;18.74;78.01
35910;BME280;22004;49.120;-0.200;2023-06-22T01:18:31;101753.53;;;18.79;78.13
35910;BME280;22004;49.120;-0.200;2023-06-22T01:21:01;101742.88;;;18.78;78.10
35910;BME280;22004;49.120;-0.200;2023-06-22T01:23:42;101730.94;;;18.72;78.27
35910;BME280;22004;49.120;-0.200;2023-06-22T01:26:22;101719.66;;;18.69;78.47
35910;BME280;22004;49.120;-0.200;2023-06-22T01:28:54;101721.06;;;18.65;78.62
35910;BME280;22004;49.120;-0.200;2023-06-22T01:31:24;101721.28;;;18.63;78.82
35910;BME280;22004;49.120;-0.200;2023-06-22T01:33:55;101710.00;;;18.66;78.65
35910;BME280;22004;49.120;-0.200;2023-06-22T01:36:23;101725.28;;;18.74;78.53
35910;BME280;22004;49.120;-0.200;2023-06-22T01:38:49;101705.63;;;18.72;78.51
35910;BME280;22004;49.120;-0.200;2023-06-22T01:41:19;101699.56;;;18.76;78.30
35910;BME280;22004;49.120;-0.200;2023-06-22T01:43:45;101697.06;;;18.68;78.39
35910;BME280;22004;49.120;-0.200;2023-06-22T01:46:11;101721.53;;;18.68;78.59
35910;BME280;22004;49.120;-0.200;2023-06-22T01:48:38;101634.72;;;18.60;78.87
35910;BME280;22004;49.120;-0.200;2023-06-22T01:51:04;101694.53;;;18.67;78.81
35910;BME280;22004;49.120;-0.200;2023-06-22T01:53:29;101704.38;;;18.61;78.73
35910;BME280;22004;49.120;-0.200;2023-06-22T01:55:56;101721.72;;;18.67;78.98
35910;BME280;22004;49.120;-0.200;2023-06-22T01:58:25;101698.91;;;18.54;78.47
35910;BME280;22004;49.120;-0.200;2023-06-22T02:01:09;101612.09;;;18.53;78.67
35910;BME280;22004;49.120;-0.200;2023-06-22T02:03:38;101632.19;;;18.52;79.10
35910;BME280;22004;49.120;-0.200;2023-06-22T02:06:08;101619.41;;;18.59;78.54
35910;BME280;22004;49.120;-0.200;2023-06-22T02:08:41;101601.47;;;18.51;78.69
35910;BME280;22004;49.120;-0.200;2023-06-22T02:11:09;101611.28;;;18.52;79.09
35910;BME280;22004;49.120;-0.200;2023-06-22T02:13:37;101587.66;;;18.46;79.15
35910;BME280;22004;49.120;-0.200;2023-06-22T02:16:09;101603.75;;;18.48;78.29
35910;BME280;22004;49.120;-0.200;2023-06-22T02:18:34;101673.00;;;18.45;79.25
35910;BME280;22004;49.120;-0.200;2023-06-22T02:21:01;101690.16;;;18.46;79.56
35910;BME280;22004;49.120;-0.200;2023-06-22T02:23:27;101664.63;;;18.33;79.39
35910;BME280;22004;49.120;-0.200;2023-06-22T02:25:52;101659.19;;;18.40;79.54
35910;BME280;22004;49.120;-0.200;2023-06-22T02:28:17;101645.81;;;18.45;79.45
35910;BME280;22004;49.120;-0.200;2023-06-22T02:30:43;101629.09;;;18.35;79.35
35910;BME280;22004;49.120;-0.200;2023-06-22T02:33:08;101657.72;;;18.24;80.08
35910;BME280;22004;49.120;-0.200;2023-06-22T02:35:33;101630.13;;;18.14;80.23
35910;BME280;22004;49.120;-0.200;2023-06-22T02:38:01;101637.66;;;18.32;80.40
35910;BME280;22004;49.120;-0.200;2023-06-22T02:40:28;101646.22;;;18.42;79.55
35910;BME280;22004;49.120;-0.200;2023-06-22T02:42:54;101651.03;;;18.27;79.94
35910;BME280;22004;49.120;-0.200;2023-06-22T02:45:20;101658.97;;;18.42;79.51
35910;BME280;22004;49.120;-0.200;2023-06-22T02:47:45;101649.16;;;18.41;79.69
35910;BME280;22004;49.120;-0.200;2023-06-22T02:50:13;101644.75;;;18.40;79.70
35910;BME280;22004;49.120;-0.200;2023-06-22T02:52:38;101656.88;;;18.37;79.72
35910;BME280;22004;49.120;-0.200;2023-06-22T02:55:05;101669.22;;;18.40;79.77
35910;BME280;22004;49.120;-0.200;2023-06-22T02:57:30;101661.28;;;18.31;79.93
35910;BME280;22004;49.120;-0.200;2023-06-22T02:59:56;101657.75;;;18.31;80.02
35910;BME280;22004;49.120;-0.200;2023-06-22T03:02:21;101660.22;;;18.32;79.92
35910;BME280;22004;49.120;-0.200;2023-06-22T03:04:47;101650.41;;;18.25;80.18
35910;BME280;22004;49.120;-0.200;2023-06-22T03:07:13;101647.91;;;18.37;79.82
35910;BME280;22004;49.120;-0.200;2023-06-22T03:09:39;101635.34;;;18.29;80.32
35910;BME280;22004;49.120;-0.200;2023-06-22T03:12:04;101631.38;;;18.25;80.03
35910;BME280;22004;49.120;-0.200;2023-06-22T03:14:30;101665.69;;;18.26;80.27
35910;BME280;22004;49.120;-0.200;2023-06-22T03:16:55;101657.53;;;18.26;80.05
35910;BME280;22004;49.120;-0.200;2023-06-22T03:19:26;101653.97;;;18.25;80.02
35910;BME280;22004;49.120;-0.200;2023-06-22T03:21:53;101651.47;;;18.17;80.42
35910;BME280;22004;49.120;-0.200;2023-06-22T03:24:18;101649.56;;;18.18;80.13
35910;BME280;22004;49.120;-0.200;2023-06-22T03:26:44;101647.69;;;18.18;80.30
35910;BME280;22004;49.120;-0.200;2023-06-22T03:29:11;101651.66;;;18.22;80.20
35910;BME280;22004;49.120;-0.200;2023-06-22T03:31:37;101651.25;;;18.19;80.25
35910;BME280;22004;49.120;-0.200;2023-06-22T03:34:02;101645.81;;;18.25;80.23
35910;BME280;22004;49.120;-0.200;2023-06-22T03:36:27;101655.22;;;18.16;80.46
35910;BME280;22004;49.120;-0.200;2023-06-22T03:38:55;101661.47;;;18.23;80.29
35910;BME280;22004;49.120;-0.200;2023-06-22T03:41:20;101659.59;;;18.24;80.23
35910;BME280;22004;49.120;-0.200;2023-06-22T03:43:45;101658.13;;;18.28;80.15
35910;BME280;22004;49.120;-0.200;2023-06-22T03:46:11;101653.13;;;18.31;80.20
35910;BME280;22004;49.120;-0.200;2023-06-22T03:48:37;101649.16;;;18.27;80.67
35910;BME280;22004;49.120;-0.200;2023-06-22T03:51:02;101644.34;;;18.23;80.59
35910;BME280;22004;49.120;-0.200;2023-06-22T03:53:28;101637.88;;;18.17;80.92
35910;BME280;22004;49.120;-0.200;2023-06-22T03:55:54;101638.50;;;18.32;80.38
35910;BME280;22004;49.120;-0.200;2023-06-22T03:58:20;101643.50;;;18.29;80.40
35910;BME280;22004;49.120;-0.200;2023-06-22T04:00:47;101635.78;;;18.32;80.50
35910;BME280;22004;49.120;-0.200;2023-06-22T04:03:13;101626.97;;;18.44;80.10
35910;BME280;22004;49.120;-0.200;2023-06-22T04:05:39;101635.34;;;18.42;80.29
35910;BME280;22004;49.120;-0.200;2023-06-22T04:08:05;101633.06;;;18.46;79.98
35910;BME280;22004;49.120;-0.200;2023-06-22T04:10:30;101634.72;;;18.47;79.88
35910;BME280;22004;49.120;-0.200;2023-06-22T04:12:56;101641.00;;;18.41;79.85
35910;BME280;22004;49.120;-0.200;2023-06-22T04:15:21;101629.47;;;18.39;70.22
35910;BME280;22004;49.120;-0.200;2023-06-22T04:17:46;101647.47;;;18.40;80.08
35910;BME280;22004;49.120;-0.200;2023-06-22T04:20:12;101643.28;;;18.37;80.45
35910;BME280;22004;49.120;-0.200;2023-06-22T04:22:37;101555.88;;;18.40;80.23
35910;BME280;22004;49.120;-0.200;2023-06-22T04:25:03;101561.75;;;18.37;80.28
35910;BME280;22004;49.120;-0.200;2023-06-22T04:27:28;101643.50;;;18.42;80.29
35910;BME280;22004;49.120;-0.200;2023-06-22T04:29:53;101635.13;;;18.37;80.01
35910;BME280;22004;49.120;-0.200;2023-06-22T04:32:19;101630.53;;;18.38;80.26
35910;BME280;22004;49.120;-0.200;2023-06-22T04:34:44;101651.44;;;18.04;80.46
35910;BME280;22004;49.120;-0.200;2023-06-22T04:37:09;101640.19;;;18.20;81.27
35910;BME280;22004;49.120;-0.200;2023-06-22T04:39:40;101574.72;;;18.28;80.76
35910;BME280;22004;49.120;-0.200;2023-06-22T04:42:06;101564.66;;;18.29;80.95
35910;BME280;22004;49.120;-0.200;2023-06-22T04:44:31;101564.25;;;18.45;80.04
35910;BME280;22004;49.120;-0.200;2023-06-22T04:46:58;101559.81;;;18.44;80.05
35910;BME280;22004;49.120;-0.200;2023-06-22T04:49:28;101594.97;;;18.39;80.26
35910;BME280;22004;49.120;-0.200;2023-06-22T04:52:04;101603.56;;;18.29;80.96
35910;BME280;22004;49.120;-0.200;2023-06-22T04:54:30;101600.63;;;18.38;80.42
35910;BME280;22004;49.120;-0.200;2023-06-22T04:57:02;101598.72;;;18.45;80.19
35910;BME280;22004;49.120;-0.200;2023-06-22T04:59:28;101597.06;;;18.44;80.35
35910;BME280;22004;49.120;-0.200;2023-06-22T05:01:59;101602.09;;;18.40;80.42
35910;BME280;22004;49.120;-0.200;2023-06-22T05:04:26;101610.69;;;18.24;81.32
35910;BME280;22004;49.120;-0.200;2023-06-22T05:06:59;101621.13;;;18.27;81.11
35910;BME280;22004;49.120;-0.200;2023-06-22T05:09:28;101616.34;;;18.16;81.41
35910;BME280;22004;49.120;-0.200;2023-06-22T05:11:54;101609.81;;;17.70;82.87
35910;BME280;22004;49.120;-0.200;2023-06-22T05:14:21;101606.94;;;17.92;83.04
35910;BME280;22004;49.120;-0.200;2023-06-22T05:16:48;101610.91;;;18.02;82.04
35910;BME280;22004;49.120;-0.200;2023-06-22T05:19:14;101604.00;;;18.06;81.85
35910;BME280;22004;49.120;-0.200;2023-06-22T05:21:39;101599.22;;;17.95;82.90
35910;BME280;22004;49.120;-0.200;2023-06-22T05:24:05;101611.09;;;18.14;82.58
35910;BME280;22004;49.120;-0.200;2023-06-22T05:26:31;101598.13;;;18.09;82.54
35910;BME280;22004;49.120;-0.200;2023-06-22T05:28:57;101598.38;;;18.01;82.84
35910;BME280;22004;49.120;-0.200;2023-06-22T05:31:23;101615.91;;;17.99;83.19
35910;BME280;22004;49.120;-0.200;2023-06-22T05:33:51;101601.72;;;18.17;82.55
35910;BME280;22004;49.120;-0.200;2023-06-22T05:36:17;101593.34;;;17.92;83.66
35910;BME280;22004;49.120;-0.200;2023-06-22T05:38:45;101597.94;;;17.78;84.60
35910;BME280;22004;49.120;-0.200;2023-06-22T05:41:10;101595.63;;;18.08;83.36
35910;BME280;22004;49.120;-0.200;2023-06-22T05:43:36;101597.72;;;17.86;84.87
35910;BME280;22004;49.120;-0.200;2023-06-22T05:46:01;101597.31;;;17.96;84.35
35910;BME280;22004;49.120;-0.200;2023-06-22T05:48:27;101601.91;;;18.08;83.43
35910;BME280;22004;49.120;-0.200;2023-06-22T05:50:53;101604.41;;;18.17;82.78
35910;BME280;22004;49.120;-0.200;2023-06-22T05:53:19;101613.81;;;18.07;82.86
35910;BME280;22004;49.120;-0.200;2023-06-22T05:55:44;101621.78;;;18.16;82.78
35910;BME280;22004;49.120;-0.200;2023-06-22T05:58:10;101623.22;;;18.51;81.15
35910;BME280;22004;49.120;-0.200;2023-06-22T06:00:36;101602.50;;;18.57;80.44
35910;BME280;22004;49.120;-0.200;2023-06-22T06:03:01;101603.75;;;18.48;80.48
35910;BME280;22004;49.120;-0.200;2023-06-22T06:05:30;101608.72;;;18.64;79.36
35910;BME280;22004;49.120;-0.200;2023-06-22T06:07:56;101618.19;;;18.55;79.02
35910;BME280;22004;49.120;-0.200;2023-06-22T06:10:22;101619.00;;;18.62;79.00
35910;BME280;22004;49.120;-0.200;2023-06-22T06:12:47;101616.63;;;18.99;77.98
35910;BME280;22004;49.120;-0.200;2023-06-22T06:15:13;101614.34;;;18.89;77.89
35910;BME280;22004;49.120;-0.200;2023-06-22T06:17:52;101614.56;;;18.88;78.05
35910;BME280;22004;49.120;-0.200;2023-06-22T06:20:22;101615.41;;;19.33;75.79
35910;BME280;22004;49.120;-0.200;2023-06-22T06:22:48;101620.06;;;19.71;75.54
35910;BME280;22004;49.120;-0.200;2023-06-22T06:25:14;101620.63;;;19.79;74.72
35910;BME280;22004;49.120;-0.200;2023-06-22T06:27:43;101624.44;;;19.72;74.08
35910;BME280;22004;49.120;-0.200;2023-06-22T06:30:10;101623.50;;;19.59;73.35
35910;BME280;22004;49.120;-0.200;2023-06-22T06:32:35;101621.28;;;19.36;73.54
35910;BME280;22004;49.120;-0.200;2023-06-22T06:35:01;101631.03;;;19.51;75.05
35910;BME280;22004;49.120;-0.200;2023-06-22T06:37:26;101622.81;;;19.64;74.59
35910;BME280;22004;49.120;-0.200;2023-06-22T06:39:53;101621.13;;;19.25;74.12
35910;BME280;22004;49.120;-0.200;2023-06-22T06:42:18;101622.72;;;19.39;74.24
35910;BME280;22004;49.120;-0.200;2023-06-22T06:44:44;101622.41;;;19.54;74.00
35910;BME280;22004;49.120;-0.200;2023-06-22T06:47:09;101626.13;;;19.73;73.98
35910;BME280;22004;49.120;-0.200;2023-06-22T06:49:35;101622.63;;;19.66;73.47
35910;BME280;22004;49.120;-0.200;2023-06-22T06:52:01;101622.25;;;19.49;74.66
35910;BME280;22004;49.120;-0.200;2023-06-22T06:54:26;101633.06;;;19.69;73.68
35910;BME280;22004;49.120;-0.200;2023-06-22T06:56:52;101629.78;;;19.60;74.13
35910;BME280;22004;49.120;-0.200;2023-06-22T06:59:17;101629.31;;;19.63;74.19
35910;BME280;22004;49.120;-0.200;2023-06-22T07:01:43;101627.13;;;19.40;73.95
35910;BME280;22004;49.120;-0.200;2023-06-22T07:04:09;101615.28;;;19.21;74.86
35910;BME280;22004;49.120;-0.200;2023-06-22T07:06:34;101618.00;;;19.21;75.14
35910;BME280;22004;49.120;-0.200;2023-06-22T07:09:00;101625.06;;;19.29;75.38
35910;BME280;22004;49.120;-0.200;2023-06-22T07:11:26;101618.97;;;19.40;74.53
35910;BME280;22004;49.120;-0.200;2023-06-22T07:13:51;101629.25;;;19.31;75.55
35910;BME280;22004;49.120;-0.200;2023-06-22T07:16:17;101626.72;;;19.36;74.96
35910;BME280;22004;49.120;-0.200;2023-06-22T07:18:43;101618.50;;;19.43;74.99
35910;BME280;22004;49.120;-0.200;2023-06-22T07:21:08;101625.19;;;19.47;74.93
35910;BME280;22004;49.120;-0.200;2023-06-22T07:23:34;101623.31;;;19.48;75.58
35910;BME280;22004;49.120;-0.200;2023-06-22T07:25:59;101625.88;;;20.06;73.82
35910;BME280;22004;49.120;-0.200;2023-06-22T07:28:28;101621.66;;;19.85;73.80
35910;BME280;22004;49.120;-0.200;2023-06-22T07:30:56;101634.00;;;20.37;72.27
35910;BME280;22004;49.120;-0.200;2023-06-22T07:33:22;101642.47;;;20.73;71.89
35910;BME280;22004;49.120;-0.200;2023-06-22T07:35:47;101627.59;;;20.00;72.87
35910;BME280;22004;49.120;-0.200;2023-06-22T07:38:13;101629.00;;;20.09;72.57
35910;BME280;22004;49.120;-0.200;2023-06-22T07:40:39;101634.00;;;20.12;73.11
35910;BME280;22004;49.120;-0.200;2023-06-22T07:43:06;101634.50;;;20.28;72.98
35910;BME280;22004;49.120;-0.200;2023-06-22T07:45:32;101646.34;;;20.83;69.92
35910;BME280;22004;49.120;-0.200;2023-06-22T07:48:00;101636.50;;;20.39;70.24
35910;BME280;22004;49.120;-0.200;2023-06-22T07:50:25;101634.56;;;20.21;71.16
35910;BME280;22004;49.120;-0.200;2023-06-22T07:52:50;101649.63;;;20.74;70.24
35910;BME280;22004;49.120;-0.200;2023-06-22T07:55:18;101646.81;;;21.17;68.73
35910;BME280;22004;49.120;-0.200;2023-06-22T07:57:43;101651.22;;;21.66;67.89
35910;BME280;22004;49.120;-0.200;2023-06-22T08:00:09;101657.34;;;21.80;67.17
35910;BME280;22004;49.120;-0.200;2023-06-22T08:02:44;101656.59;;;22.03;65.51
35910;BME280;22004;49.120;-0.200;2023-06-22T08:05:10;101668.22;;;22.10;66.70
35910;BME280;22004;49.120;-0.200;2023-06-22T08:07:36;101657.25;;;22.29;66.43
35910;BME280;22004;49.120;-0.200;2023-06-22T08:10:03;101663.31;;;22.78;64.78
35910;BME280;22004;49.120;-0.200;2023-06-22T08:12:28;101664.25;;;22.83;63.80
35910;BME280;22004;49.120;-0.200;2023-06-22T08:14:54;101664.63;;;22.52;65.36
35910;BME280;22004;49.120;-0.200;2023-06-22T08:17:19;101657.38;;;22.92;63.12
35910;BME280;22004;49.120;-0.200;2023-06-22T08:19:45;101663.91;;;22.80;64.18
35910;BME280;22004;49.120;-0.200;2023-06-22T08:22:10;101596.47;;;23.14;62.07
35910;BME280;22004;49.120;-0.200;2023-06-22T08:24:35;101576.22;;;23.43;60.61
35910;BME280;22004;49.120;-0.200;2023-06-22T08:27:01;101636.41;;;24.12;60.52
35910;BME280;22004;49.120;-0.200;2023-06-22T08:29:26;101648.34;;;23.61;60.75
35910;BME280;22004;49.120;-0.200;2023-06-22T08:31:51;101639.25;;;23.03;63.07
35910;BME280;22004;49.120;-0.200;2023-06-22T08:34:17;101655.25;;;23.92;61.31
35910;BME280;22004;49.120;-0.200;2023-06-22T08:36:47;101645.03;;;24.04;59.28
35910;BME280;22004;49.120;-0.200;2023-06-22T08:39:19;101658.75;;;24.21;59.93
35910;BME280;22004;49.120;-0.200;2023-06-22T08:41:45;101670.25;;;24.90;57.42
35910;BME280;22004;49.120;-0.200;2023-06-22T08:44:11;101653.41;;;24.31;58.37
35910;BME280;22004;49.120;-0.200;2023-06-22T08:46:36;101646.88;;;23.01;60.48
35910;BME280;22004;49.120;-0.200;2023-06-22T08:49:04;101660.50;;;23.65;60.81
35910;BME280;22004;49.120;-0.200;2023-06-22T08:51:29;101667.97;;;24.65;59.26
35910;BME280;22004;49.120;-0.200;2023-06-22T08:53:54;101680.84;;;25.42;56.38
35910;BME280;22004;49.120;-0.200;2023-06-22T08:56:20;101662.66;;;24.08;58.56
35910;BME280;22004;49.120;-0.200;2023-06-22T08:58:45;101680.25;;;25.40;56.87
35910;BME280;22004;49.120;-0.200;2023-06-22T09:01:11;101661.13;;;23.84;61.36
35910;BME280;22004;49.120;-0.200;2023-06-22T09:03:36;101680.13;;;24.19;59.21
35910;BME280;22004;49.120;-0.200;2023-06-22T09:06:02;101681.56;;;24.55;58.94
35910;BME280;22004;49.120;-0.200;2023-06-22T09:08:28;101691.44;;;24.73;57.94
35910;BME280;22004;49.120;-0.200;2023-06-22T09:10:53;101682.06;;;24.52;59.49
35910;BME280;22004;49.120;-0.200;2023-06-22T09:13:18;101693.66;;;24.37;59.23
35910;BME280;22004;49.120;-0.200;2023-06-22T09:15:44;101682.22;;;23.55;61.37
35910;BME280;22004;49.120;-0.200;2023-06-22T09:18:13;101711.72;;;24.89;60.51
35910;BME280;22004;49.120;-0.200;2023-06-22T09:20:38;101693.06;;;24.07;59.75
35910;BME280;22004;49.120;-0.200;2023-06-22T09:23:04;101691.88;;;23.57;61.04
35910;BME280;22004;49.120;-0.200;2023-06-22T09:25:29;101690.19;;;22.81;62.29
35910;BME280;22004;49.120;-0.200;2023-06-22T09:27:55;101688.41;;;22.51;63.99
35910;BME280;22004;49.120;-0.200;2023-06-22T09:30:21;101682.56;;;22.48;64.57
35910;BME280;22004;49.120;-0.200;2023-06-22T09:32:46;101693.28;;;22.37;63.99
35910;BME280;22004;49.120;-0.200;2023-06-22T09:35:11;101697.78;;;22.32;64.30
35910;BME280;22004;49.120;-0.200;2023-06-22T09:37:39;101706.53;;;22.64;63.86
35910;BME280;22004;49.120;-0.200;2023-06-22T09:40:05;101689.13;;;22.47;63.77
35910;BME280;22004;49.120;-0.200;2023-06-22T09:42:34;101712.91;;;22.46;63.99
35910;BME280;22004;49.120;-0.200;2023-06-22T09:44:59;101715.56;;;23.11;62.41
35910;BME280;22004;49.120;-0.200;2023-06-22T09:47:26;101712.94;;;22.58;61.91
35910;BME280;22004;49.120;-0.200;2023-06-22T09:49:52;101714.13;;;22.74;62.35
35910;BME280;22004;49.120;-0.200;2023-06-22T09:52:17;101675.19;;;22.36;63.29
35910;BME280;22004;49.120;-0.200;2023-06-22T09:54:42;101711.13;;;22.40;63.54
35910;BME280;22004;49.120;-0.200;2023-06-22T09:57:08;101708.28;;;22.05;62.71
35910;BME280;22004;49.120;-0.200;2023-06-22T09:59:33;101718.09;;;22.89;63.13
35910;BME280;22004;49.120;-0.200;2023-06-22T10:01:59;101725.47;;;22.89;61.68
35910;BME280;22004;49.120;-0.200;2023-06-22T10:04:24;101726.53;;;23.52;60.87
35910;BME280;22004;49.120;-0.200;2023-06-22T10:06:50;101711.69;;;23.88;58.86
35910;BME280;22004;49.120;-0.200;2023-06-22T10:09:16;101707.94;;;23.94;59.44
35910;BME280;22004;49.120;-0.200;2023-06-22T10:11:41;101711.16;;;24.70;57.93
35910;BME280;22004;49.120;-0.200;2023-06-22T10:14:06;101708.13;;;24.04;58.80
35910;BME280;22004;49.120;-0.200;2023-06-22T10:16:32;101708.28;;;23.97;58.54
35910;BME280;22004;49.120;-0.200;2023-06-22T10:18:58;101700.09;;;23.57;60.06
35910;BME280;22004;49.120;-0.200;2023-06-22T10:21:23;101714.13;;;24.18;60.29
35910;BME280;22004;49.120;-0.200;2023-06-22T10:23:48;101713.72;;;24.26;58.96
35910;BME280;22004;49.120;-0.200;2023-06-22T10:26:14;101712.69;;;24.44;58.57
35910;BME280;22004;49.120;-0.200;2023-06-22T10:28:39;101698.06;;;24.27;59.15
35910;BME280;22004;49.120;-0.200;2023-06-22T10:31:04;101715.06;;;24.40;58.88
35910;BME280;22004;49.120;-0.200;2023-06-22T10:33:30;101713.88;;;24.03;58.83
35910;BME280;22004;49.120;-0.200;2023-06-22T10:35:55;101707.84;;;23.89;59.36
35910;BME280;22004;49.120;-0.200;2023-06-22T10:38:20;101702.41;;;23.37;59.94
35910;BME280;22004;49.120;-0.200;2023-06-22T10:40:46;101709.38;;;23.68;58.89
35910;BME280;22004;49.120;-0.200;2023-06-22T10:43:11;101693.22;;;23.43;60.19
35910;BME280;22004;49.120;-0.200;2023-06-22T10:45:37;101708.09;;;23.87;60.30
35910;BME280;22004;49.120;-0.200;2023-06-22T10:48:02;101711.59;;;23.71;60.72
35910;BME280;22004;49.120;-0.200;2023-06-22T10:50:27;101705.09;;;23.89;60.04
35910;BME280;22004;49.120;-0.200;2023-06-22T10:52:54;101704.72;;;23.57;60.09
35910;BME280;22004;49.120;-0.200;2023-06-22T10:55:19;101709.88;;;23.82;60.99
35910;BME280;22004;49.120;-0.200;2023-06-22T10:57:44;101711.28;;;23.67;60.05
35910;BME280;22004;49.120;-0.200;2023-06-22T11:00:13;101720.28;;;24.25;58.50
35910;BME280;22004;49.120;-0.200;2023-06-22T11:02:38;101714.00;;;23.96;59.11
35910;BME280;22004;49.120;-0.200;2023-06-22T11:05:04;101711.97;;;23.75;60.32
35910;BME280;22004;49.120;-0.200;2023-06-22T11:07:30;101699.25;;;23.68;59.79
35910;BME280;22004;49.120;-0.200;2023-06-22T11:09:56;101716.16;;;23.65;60.76
35910;BME280;22004;49.120;-0.200;2023-06-22T11:12:21;101715.00;;;23.50;59.25
35910;BME280;22004;49.120;-0.200;2023-06-22T11:14:47;101725.03;;;24.30;58.97
35910;BME280;22004;49.120;-0.200;2023-06-22T11:17:12;101720.41;;;24.02;58.66
35910;BME280;22004;49.120;-0.200;2023-06-22T11:19:38;101693.41;;;23.93;57.73
35910;BME280;22004;49.120;-0.200;2023-06-22T11:22:03;101719.81;;;24.45;57.98
35910;BME280;22004;49.120;-0.200;2023-06-22T11:24:29;101717.09;;;23.99;57.91
35910;BME280;22004;49.120;-0.200;2023-06-22T11:26:54;101730.97;;;24.55;58.63
35910;BME280;22004;49.120;-0.200;2023-06-22T11:29:19;101721.34;;;24.07;59.36
35910;BME280;22004;49.120;-0.200;2023-06-22T11:31:45;101719.47;;;23.96;59.02
35910;BME280;22004;49.120;-0.200;2023-06-22T11:34:10;101714.72;;;23.91;59.49
35910;BME280;22004;49.120;-0.200;2023-06-22T11:36:36;101716.00;;;24.01;58.78
35910;BME280;22004;49.120;-0.200;2023-06-22T11:39:01;101726.34;;;24.10;58.88
35910;BME280;22004;49.120;-0.200;2023-06-22T11:41:27;101717.00;;;23.54;59.23
35910;BME280;22004;49.120;-0.200;2023-06-22T11:43:52;101727.31;;;24.04;59.16
35910;BME280;22004;49.120;-0.200;2023-06-22T11:46:18;101724.09;;;23.79;58.89
35910;BME280;22004;49.120;-0.200;2023-06-22T11:48:43;101733.13;;;24.36;59.84
35910;BME280;22004;49.120;-0.200;2023-06-22T11:51:08;101727.44;;;24.26;58.17
35910;BME280;22004;49.120;-0.200;2023-06-22T11:53:34;101719.47;;;23.96;58.72
35910;BME280;22004;49.120;-0.200;2023-06-22T11:56:01;101722.31;;;24.01;58.65
35910;BME280;22004;49.120;-0.200;2023-06-22T11:58:26;101719.72;;;23.66;59.26
35910;BME280;22004;49.120;-0.200;2023-06-22T12:00:54;101722.41;;;24.06;58.76
35910;BME280;22004;49.120;-0.200;2023-06-22T12:03:20;101722.94;;;24.20;59.15
35910;BME280;22004;49.120;-0.200;2023-06-22T12:05:46;101718.97;;;24.28;57.69
35910;BME280;22004;49.120;-0.200;2023-06-22T12:08:12;101718.00;;;24.67;56.36
35910;BME280;22004;49.120;-0.200;2023-06-22T12:10:38;101717.75;;;24.69;58.00
35910;BME280;22004;49.120;-0.200;2023-06-22T12:13:03;101723.94;;;24.98;56.24
35910;BME280;22004;49.120;-0.200;2023-06-22T12:15:29;101716.78;;;24.30;56.67
35910;BME280;22004;49.120;-0.200;2023-06-22T12:17:54;101712.38;;;24.12;56.68
35910;BME280;22004;49.120;-0.200;2023-06-22T12:20:19;101722.97;;;23.91;58.17
35910;BME280;22004;49.120;-0.200;2023-06-22T12:22:45;101726.59;;;24.09;58.81
35910;BME280;22004;49.120;-0.200;2023-06-22T12:25:11;101720.50;;;24.07;56.17
35910;BME280;22004;49.120;-0.200;2023-06-22T12:27:36;101713.41;;;23.77;57.29
35910;BME280;22004;49.120;-0.200;2023-06-22T12:30:03;101714.81;;;23.96;59.11
35910;BME280;22004;49.120;-0.200;2023-06-22T12:32:29;101726.81;;;24.36;56.92
35910;BME280;22004;49.120;-0.200;2023-06-22T12:34:55;101721.00;;;24.49;56.88
35910;BME280;22004;49.120;-0.200;2023-06-22T12:37:21;101715.91;;;23.95;57.17
35910;BME280;22004;49.120;-0.200;2023-06-22T12:39:46;101706.53;;;24.54;58.01